Latest Weather Observations for Kununurra Airport

IDD60801

Issued at 3:51 pm CST Friday 19 April 2019 (issued every 10 minutes, with the page automatically refreshed every 10 minutes)

About weather observations | Map of weather stations | Latest weather observations for NT | Other Formats
Station Details ID: 002056 Name: KUNUNURRA AERO Lat: -15.78 Lon: 128.71 Height: 44.0 m
Data from the previous 72 hours. | See also: Recent months at Kununurra Airport
Date/Time
CST
Temp
°C
App
Temp
°C
Dew
Point
°C
Rel
Hum
%
Delta-T
°C
Wind Press
QNH
hPa
Press
MSL
hPa
Rain since
9am
mm
Dir  Spd
km/h
Gust
km/h
Spd
kts
Gust
kts
19/03:30pm 35.4 34.8 16.7 33 12.0 NE 15 22 8 12 1008.9 1008.6 0.0
19/03:00pm 36.0 34.9 17.2 33 12.1 N 19 26 10 14 1009.1 1008.8 0.0
19/02:30pm 34.3 35.0 18.8 40 10.2 NNE 13 19 7 10 1009.6 1009.3 0.0
19/02:00pm 34.8 35.5 18.8 39 10.5 N 13 19 7 10 1010.1 1009.8 0.0
19/01:30pm 33.7 35.1 18.6 40 9.9 NNE 9 15 5 8 1010.6 1010.3 0.0
19/01:00pm 33.4 34.6 18.3 40 9.8 NE 9 20 5 11 1011.2 1010.9 0.0
19/12:30pm 34.8 34.4 18.0 37 10.9 NNW 17 24 9 13 1011.9 1011.6 0.0
19/12:00pm 34.5 34.0 17.7 37 10.9 NNE 17 30 9 16 1012.7 1012.4 0.0
19/11:30am 34.2 34.4 19.4 41 9.8 NNE 17 30 9 16 1013.2 1012.9 0.0
19/11:00am 33.4 34.0 20.2 46 8.8 NNE 17 24 9 13 1013.6 1013.3 0.0
19/10:30am 32.8 35.8 21.3 50 7.8 N 7 11 4 6 1014.0 1013.7 0.0
19/10:00am 31.1 33.8 21.3 56 6.6 N 9 13 5 7 1013.9 1013.6 0.0
19/09:30am 29.5 32.6 21.4 61 5.4 ESE 7 11 4 6 1014.0 1013.7 0.0
19/09:00am 28.1 31.2 21.1 65 4.7 WSW 6 9 3 5 1013.7 1013.4 0.0
19/08:30am 26.3 29.8 20.4 70 3.9 SSW 2 6 1 3 1013.7 1013.4 0.0
19/08:22am 25.9 29.3 20.2 71 3.7 SSW 2 6 1 3 1013.7 1013.4 0.0
19/08:09am 25.5 28.1 20.1 72 3.5 SE 6 9 3 5 1013.6 1013.3 0.0
19/08:00am 25.1 27.0 20.6 76 2.9 ESE 11 15 6 8 1013.5 1013.2 0.0
19/07:58am 24.9 26.8 20.6 77 2.8 ESE 11 17 6 9 1013.5 1013.2 0.0
19/07:45am 23.7 25.4 21.0 85 1.8 E 13 17 7 9 1013.3 1013.0 0.0
19/07:32am 22.6 26.6 20.5 88 1.4 CALM 0 7 0 4 1012.9 1012.6 0.0
19/07:30am 22.5 26.6 20.8 90 1.1 CALM 0 0 0 0 1012.9 1012.6 0.0
19/07:20am 22.2 26.3 20.8 92 0.9 CALM 0 0 0 0 1012.6 1012.3 0.0
19/07:08am 21.8 25.7 20.3 91 1.0 CALM 0 0 0 0 1012.4 1012.1 0.0
19/07:00am 21.9 25.6 20.0 89 1.2 CALM 0 2 0 1 1012.3 1012.0 0.0
19/06:33am 22.2 25.5 19.0 82 2.0 CALM 0 4 0 2 1012.0 1011.7 0.0
19/06:30am 22.6 26.2 19.8 84 1.8 CALM 0 4 0 2 1012.0 1011.7 0.0
19/06:10am 22.9 26.1 20.6 87 1.5 SW 4 6 2 3 1011.8 1011.5 0.0
19/06:00am 22.2 25.3 20.3 89 1.2 WNW 4 7 2 4 1011.8 1011.5 0.0
19/05:52am 22.1 24.4 19.8 87 1.5 WNW 7 9 4 5 1011.7 1011.4 0.0
19/05:36am 22.4 24.7 19.9 86 1.6 NW 7 11 4 6 1011.7 1011.4 0.0
19/05:30am 22.4 24.8 20.1 87 1.5 N 7 9 4 5 1011.7 1011.4 0.0
19/05:19am 22.5 24.6 20.2 87 1.5 NNE 9 15 5 8 1011.7 1011.4 0.0
19/05:00am 22.5 24.0 20.6 89 1.2 NNE 13 17 7 9 1011.8 1011.5 0.0
19/04:30am 22.7 26.4 20.0 85 1.7 CALM 0 4 0 2 1011.5 1011.2 0.0
19/04:00am 23.6 26.7 21.1 86 1.6 ENE 6 7 3 4 1011.4 1011.1 0.0
19/03:30am 22.6 26.6 20.5 88 1.4 CALM 0 0 0 0 1011.3 1011.0 0.0
19/03:00am 22.7 26.6 20.4 87 1.5 CALM 0 0 0 0 1011.4 1011.1 0.0
19/02:30am 23.0 26.1 19.6 81 2.2 SSE 2 6 1 3 1011.5 1011.2 0.0
19/02:05am 23.9 27.8 20.4 81 2.3 CALM 0 0 0 0 1011.6 1011.3 0.0
19/02:00am 23.3 27.1 20.1 82 2.1 CALM 0 0 0 0 1011.7 1011.4 0.0
19/01:53am 23.4 26.8 19.3 78 2.6 CALM 0 0 0 0 1011.7 1011.4 0.0
19/01:41am 24.3 28.0 20.0 77 2.8 CALM 0 2 0 1 1011.7 1011.4 0.0
19/01:30am 24.2 26.7 19.9 77 2.8 NW 6 7 3 4 1011.8 1011.5 0.0
19/01:22am 24.1 26.6 19.8 77 2.8 NW 6 7 3 4 1011.8 1011.5 0.0
19/01:00am 25.3 29.2 20.3 74 3.3 CALM 0 0 0 0 1011.9 1011.6 0.0
19/12:30am 26.0 27.4 20.3 71 3.7 N 13 15 7 8 1012.1 1011.8 0.0
19/12:10am 25.0 27.8 20.5 76 2.9 NE 6 11 3 6 1012.1 1011.8 0.0
19/12:00am 24.6 27.2 20.1 76 2.9 N 6 11 3 6 1012.2 1011.9 0.0
 
Date/Time
CST
Temp
°C
App
Temp
°C
Dew
Point
°C
Rel
Hum
%
Delta-T
°C
Wind Press
QNH
hPa
Press
MSL
hPa
Rain since
9am
mm
Dir  Spd
km/h
Gust
km/h
Spd
kts
Gust
kts
18/11:53pm 25.0 27.2 20.3 75 3.1 N 9 11 5 6 1012.2 1011.9 0.0
18/11:30pm 25.2 27.8 20.0 73 3.4 N 6 7 3 4 1012.3 1012.0 0.0
18/11:00pm 26.2 28.8 20.1 69 4.0 NNW 6 7 3 4 1012.4 1012.1 0.0
18/10:53pm 26.1 29.2 20.2 70 3.9 N 4 7 2 4 1012.4 1012.1 0.0
18/10:42pm 26.6 29.1 20.2 68 4.2 N 7 11 4 6 1012.5 1012.2 0.0
18/10:30pm 26.7 28.6 20.5 69 4.1 N 11 13 6 7 1012.5 1012.2 0.0
18/10:22pm 26.1 28.2 20.2 70 3.9 NNE 9 13 5 7 1012.5 1012.2 0.0
18/10:04pm 26.2 28.3 20.1 69 4.0 N 9 11 5 6 1012.3 1012.0 0.0
18/10:00pm 26.1 28.2 20.2 70 3.9 NNE 9 11 5 6 1012.3 1012.0 0.0
18/09:30pm 27.8 30.2 20.1 63 5.0 NNW 7 9 4 5 1012.2 1011.9 0.0
18/09:00pm 27.5 29.8 19.8 63 5.0 NNW 7 9 4 5 1011.9 1011.6 0.0
18/08:30pm 28.0 30.7 19.5 60 5.5 NW 4 9 2 5 1011.5 1011.2 0.0
18/08:00pm 28.7 32.4 19.9 59 5.8 CALM 0 0 0 0 1011.0 1010.7 0.0
18/07:30pm 29.7 32.3 20.0 56 6.4 NNE 6 9 3 5 1010.4 1010.1 0.0
18/07:00pm 30.9 33.7 19.6 51 7.4 N 4 6 2 3 1010.0 1009.7 0.0
18/06:30pm 33.6 35.3 18.1 39 10.1 NNE 6 9 3 5 1009.7 1009.4 0.0
18/06:00pm 34.1 35.7 17.8 38 10.5 NE 6 7 3 4 1009.4 1009.1 0.0
18/05:30pm 36.5 35.3 16.1 29 13.0 ENE 17 24 9 13 1009.3 1009.0 0.0
18/05:00pm 36.6 37.0 16.2 29 13.0 ESE 9 17 5 9 1009.3 1009.0 0.0
18/04:30pm 36.6 36.4 16.7 30 12.8 ENE 13 19 7 10 1009.4 1009.1 0.0
18/04:00pm 37.0 37.7 16.0 28 13.4 SW 7 15 4 8 1009.4 1009.1 0.0
18/03:30pm 36.4 36.7 17.0 31 12.5 NNE 11 17 6 9 1009.7 1009.4 0.0
18/03:00pm 36.7 36.5 16.8 30 12.8 ENE 13 20 7 11 1010.0 1009.7 0.0
18/02:30pm 35.7 36.0 16.9 32 12.1 N 11 19 6 10 1010.2 1009.9 0.0
18/02:00pm 35.1 36.1 17.8 36 11.2 N 9 13 5 7 1010.7 1010.4 0.0
18/01:30pm 35.0 35.6 17.7 36 11.2 NNW 11 22 6 12 1011.1 1010.8 0.0
18/01:00pm 36.3 38.3 18.8 35 11.5 NW 6 20 3 11 1011.6 1011.3 0.0
18/12:30pm 35.6 35.5 17.8 35 11.6 NNW 15 20 8 11 1012.3 1012.0 0.0
18/12:00pm 34.9 35.5 18.5 38 10.7 NNE 13 19 7 10 1012.8 1012.5 0.0
18/11:30am 34.5 35.1 17.7 37 10.9 N 11 19 6 10 1013.2 1012.9 0.0
18/11:00am 32.9 34.8 19.7 45 8.7 NE 9 13 5 7 1013.5 1013.2 0.0
18/10:30am 32.6 36.0 20.2 48 8.2 WSW 2 7 1 4 1013.6 1013.3 0.0
18/10:00am 31.1 32.7 19.1 48 7.8 N 9 13 5 7 1013.7 1013.4 0.0
18/09:30am 30.1 32.5 20.9 57 6.1 ENE 9 11 5 6 1013.6 1013.3 0.0
18/09:00am 28.7 32.3 21.2 64 5.0 ESE 4 7 2 4 1013.4 1013.1 0.0
18/08:30am 26.3 29.4 21.1 73 3.4 S 6 7 3 4 1013.2 1012.9 0.0
18/08:00am 25.2 29.7 21.5 80 2.5 CALM 0 6 0 3 1012.9 1012.6 0.0
18/07:30am 22.5 26.4 20.4 88 1.4 CALM 0 0 0 0 1012.4 1012.1 0.0
18/07:00am 22.1 25.8 20.0 88 1.4 CALM 0 0 0 0 1012.1 1011.8 0.0
18/06:30am 22.1 25.7 19.8 87 1.5 CALM 0 0 0 0 1011.8 1011.5 0.0
18/06:00am 22.4 26.2 20.1 87 1.5 CALM 0 0 0 0 1011.6 1011.3 0.0
18/05:30am 23.1 26.7 20.6 86 1.6 NE 2 9 1 5 1011.5 1011.2 0.0
18/05:00am 22.7 25.5 20.4 87 1.5 NNW 6 6 3 3 1011.3 1011.0 0.0
18/04:30am 22.6 25.0 20.1 86 1.6 WNW 7 9 4 5 1011.3 1011.0 0.0
18/04:00am 23.2 27.2 20.5 85 1.8 CALM 0 0 0 0 1011.0 1010.7 0.0
18/03:30am 23.3 27.1 20.2 83 2.0 CALM 0 0 0 0 1011.0 1010.7 0.0
18/03:00am 23.8 27.6 20.1 80 2.4 CALM 0 0 0 0 1011.2 1010.9 0.0
18/02:30am 23.7 27.4 20.0 80 2.4 CALM 0 0 0 0 1011.5 1011.2 0.0
18/02:00am 23.8 27.5 19.9 79 2.5 CALM 0 0 0 0 1011.6 1011.3 0.0
18/01:30am 24.7 28.4 20.0 75 3.0 CALM 0 0 0 0 1011.8 1011.5 0.0
18/01:00am 24.9 28.8 20.4 76 2.9 CALM 0 0 0 0 1012.1 1011.8 0.0
18/12:30am 25.3 28.9 19.7 71 3.6 CALM 0 0 0 0 1012.3 1012.0 0.0
18/12:00am 25.4 27.7 19.8 71 3.6 WSW 7 7 4 4 1012.3 1012.0 0.0
 
Date/Time
CST
Temp
°C
App
Temp
°C
Dew
Point
°C
Rel
Hum
%
Delta-T
°C
Wind Press
QNH
hPa
Press
MSL
hPa
Rain since
9am
mm
Dir  Spd
km/h
Gust
km/h
Spd
kts
Gust
kts
17/11:30pm 26.3 29.0 20.2 69 4.0 NNE 6 7 3 4 1012.6 1012.3 0.0
17/11:00pm 27.4 30.6 19.7 63 5.0 NNE 2 6 1 3 1012.7 1012.4 0.0
17/10:30pm 27.5 31.1 19.8 63 5.0 CALM 0 7 0 4 1012.7 1012.4 0.0
17/10:00pm 27.4 29.8 20.0 64 4.8 NNE 7 11 4 6 1012.6 1012.3 0.0
17/09:30pm 28.3 29.8 19.8 60 5.6 N 11 13 6 7 1012.4 1012.1 0.0
17/09:00pm 28.7 30.4 19.3 56 6.1 N 9 11 5 6 1012.0 1011.7 0.0
17/08:30pm 30.5 31.5 19.5 51 7.2 N 13 19 7 10 1011.6 1011.3 0.0
17/08:00pm 31.3 31.8 19.3 49 7.9 N 15 20 8 11 1011.2 1010.9 0.0
17/07:30pm 31.9 32.6 18.8 45 8.5 N 13 15 7 8 1010.6 1010.3 0.0
17/07:00pm 32.0 33.2 19.9 48 8.0 NNE 13 15 7 8 1010.2 1009.9 0.0
17/06:30pm 34.2 35.2 17.8 37 10.6 N 9 11 5 6 1009.8 1009.5 0.0
17/06:00pm 35.8 36.5 17.0 32 12.1 N 9 15 5 8 1009.4 1009.1 0.0
17/05:30pm 37.2 37.3 15.6 27 13.7 NNW 9 13 5 7 1009.1 1008.8 0.0
17/05:00pm 37.6 37.9 16.0 28 13.8 N 9 15 5 8 1008.9 1008.6 0.0
17/04:30pm 37.5 37.6 16.4 28 13.5 NNE 11 15 6 8 1008.8 1008.5 0.0
17/04:00pm 37.4 37.8 16.4 29 13.5 NE 9 15 5 8 1009.0 1008.7 0.0
17/03:30pm 37.3 37.1 15.7 27 13.7 SE 11 17 6 9 1009.3 1009.0 0.0
17/03:00pm 37.4 37.5 16.4 29 13.5 ENE 11 20 6 11 1009.7 1009.4 0.0
17/02:30pm 37.0 37.3 17.1 31 12.9 NNE 11 19 6 10 1010.2 1009.9 0.0
17/02:00pm 36.4 36.7 16.0 29 13.0 S 9 19 5 10 1010.8 1010.5 0.0
17/01:30pm 37.1 37.7 17.6 31 12.7 N 11 15 6 8 1011.3 1011.0 0.0
17/01:00pm 36.5 37.4 17.6 32 12.3 NNW 9 13 5 7 1011.7 1011.4 0.0
17/12:30pm 35.7 37.1 17.9 35 11.6 WSW 7 15 4 8 1012.2 1011.9 0.0
17/12:00pm 35.4 36.3 18.5 37 11.1 NE 11 19 6 10 1012.7 1012.4 0.0
17/11:30am 34.6 36.5 19.0 39 10.3 SE 7 11 4 6 1013.1 1012.8 0.0
17/11:00am 33.9 35.7 18.8 41 9.9 SW 7 13 4 7 1013.4 1013.1 0.0
17/10:30am 32.9 36.4 20.4 47 8.3 E 2 9 1 5 1013.5 1013.2 0.0
17/10:00am 31.6 34.6 20.8 52 7.2 WNW 6 9 3 5 1013.6 1013.3 0.0
17/09:30am 30.9 34.4 21.1 56 6.6 NNE 4 7 2 4 1013.7 1013.4 0.0
17/09:00am 29.0 32.9 20.4 59 5.7 CALM 0 0 0 0 1013.4 1013.1 0.0
17/08:30am 27.8 30.9 21.1 67 4.5 ESE 6 7 3 4 1013.4 1013.1 0.0
17/08:03am 25.7 28.6 21.1 76 3.0 E 7 9 4 5 1013.1 1012.8 0.0
17/08:00am 25.5 28.5 21.2 77 2.8 E 7 9 4 5 1013.1 1012.8 0.0
17/07:53am 25.2 29.3 21.5 80 2.5 E 2 7 1 4 1013.2 1012.9 0.0
17/07:30am 23.7 27.9 21.0 85 1.8 CALM 0 0 0 0 1012.9 1012.6 0.0
17/07:00am 23.8 28.4 21.7 88 1.4 CALM 0 0 0 0 1012.6 1012.3 0.0
17/06:30am 22.9 26.7 20.1 84 1.8 CALM 0 0 0 0 1012.2 1011.9 0.0
17/06:00am 22.6 26.2 19.8 84 1.8 CALM 0 0 0 0 1011.8 1011.5 0.0
17/05:46am 23.4 26.2 20.5 84 1.9 N 6 6 3 3 1011.7 1011.4 0.0
17/05:36am 23.3 26.1 20.4 84 1.9 N 6 7 3 4 1011.6 1011.3 0.0
17/05:30am 23.2 26.0 20.5 85 1.8 N 6 7 3 4 1011.4 1011.1 0.0
17/05:00am 23.0 26.8 20.1 84 1.9 CALM 0 0 0 0 1011.2 1010.9 0.0
17/04:30am 23.0 26.6 19.8 82 2.1 CALM 0 0 0 0 1011.1 1010.8 0.0
17/04:00am 23.8 27.6 20.1 80 2.4 CALM 0 0 0 0 1011.1 1010.8 0.0
17/03:30am 23.8 26.1 19.9 79 2.5 N 7 9 4 5 1011.1 1010.8 0.0
17/03:05am 23.8 26.1 19.9 79 2.5 NNE 7 7 4 4 1011.2 1010.9 0.0
17/03:00am 23.8 26.1 19.9 79 2.5 NNE 7 9 4 5 1011.3 1011.0 0.0
17/02:46am 23.9 26.3 20.0 79 2.5 NNE 7 9 4 5 1011.3 1011.0 0.0
17/02:30am 24.1 26.4 19.8 77 2.8 NNE 7 7 4 4 1011.3 1011.0 0.0
17/02:00am 24.6 28.3 19.9 75 3.0 CALM 0 0 0 0 1011.7 1011.4 0.0
17/01:30am 25.1 27.9 19.7 72 3.5 NNW 4 7 2 4 1012.0 1011.7 0.0
17/01:14am 25.0 28.1 19.6 72 3.5 N 2 9 1 5 1012.0 1011.7 0.0
17/01:00am 25.3 27.5 19.7 71 3.6 NNW 7 7 4 4 1012.0 1011.7 0.0
17/12:56am 25.3 27.4 19.4 70 3.8 NNW 7 9 4 5 1012.1 1011.8 0.0
17/12:30am 26.0 28.4 19.6 68 4.1 NNW 6 7 3 4 1012.1 1011.8 0.0
17/12:00am 26.5 28.3 19.6 66 4.5 N 9 11 5 6 1012.2 1011.9 0.0
 
Date/Time
CST
Temp
°C
App
Temp
°C
Dew
Point
°C
Rel
Hum
%
Delta-T
°C
Wind Press
QNH
hPa
Press
MSL
hPa
Rain since
9am
mm
Dir  Spd
km/h
Gust
km/h
Spd
kts
Gust
kts
16/11:30pm 26.4 28.8 20.0 68 4.2 NNW 7 7 4 4 1012.4 1012.1 0.0
16/11:00pm 26.4 29.6 19.8 67 4.3 NNW 2 6 1 3 1012.6 1012.3 0.0
16/10:30pm 27.0 28.7 20.1 66 4.5 NNE 11 13 6 7 1012.7 1012.4 0.0
16/10:00pm 27.5 29.3 20.3 65 4.7 N 11 11 6 6 1012.6 1012.3 0.0
16/09:30pm 27.5 29.2 20.1 64 4.8 NNE 11 13 6 7 1012.4 1012.1 0.0
16/09:00pm 28.1 29.3 19.9 61 5.4 NNE 13 13 7 7 1011.9 1011.6 0.0
16/08:30pm 29.5 30.7 19.8 56 6.4 N 13 15 7 8 1011.5 1011.2 0.0
16/08:00pm 29.7 30.9 20.0 56 6.4 N 13 15 7 8 1011.0 1010.7 0.0
16/07:30pm 29.9 31.1 19.9 55 6.6 N 13 17 7 9 1010.6 1010.3 0.0
16/07:00pm 31.8 32.2 19.1 47 8.3 N 15 19 8 10 1009.9 1009.6 0.0
16/06:30pm 33.5 34.8 18.4 40 9.8 N 9 11 5 6 1009.3 1009.0 0.0
16/06:00pm 34.9 35.8 17.6 35 11.2 NNE 9 13 5 7 1009.2 1008.9 0.0
16/05:30pm 36.5 37.6 17.1 31 12.5 NNW 7 13 4 7 1009.0 1008.7 0.0

Other formats

Comma delimited format used in spreadsheet applications
http://www.bom.gov.au/fwo/IDD60801/IDD60801.94216.axf

JavaScript Object Notation format (JSON) in row-major order
http://www.bom.gov.au/fwo/IDD60801/IDD60801.94216.json

Data quality

Most of these data are generated automatically and are frequently updated. Quality checks on data are not normally performed. It is possible for incorrect values to appear. Refer to information at About Latest Weather Observations and please check the disclaimer before using these data.